Time;durP1;ratioP1;P1;durP2;ratioP2;P2;SDS_P1;SDS_P2;PMS_P1;PMS_P2;Temp;Humidity;BMP_temperature;BMP_pressure;BME280_temperature;BME280_humidity;BME280_pressure;Samples;Min_cycle;Max_cycle;Signal;HPM_P1;HPM_P2
2023/09/11 00:02:32;;;;;;;;;;;;;;;;;;6322358;27;19920;-78
2023/09/11 00:05:32;;;;;;;;;;;;;;;;;;6343085;27;20346;-77
2023/09/11 00:08:33;;;;;;;;;;;;;;;;;;6352938;27;20382;-79
2023/09/11 00:11:33;;;;;;;;;;;;;;;;;;6361731;27;19929;-79
2023/09/11 00:14:33;;;;;;;;;;;;;;;;;;6370525;27;19958;-79
2023/09/11 00:17:33;;;;;;;;;;;;;;;;;;6358643;27;19921;-79
2023/09/11 00:20:33;;;;;;;;;;;;;;;;;;6362451;27;19919;-79
2023/09/11 00:23:33;;;;;;;;;;;;;;;;;;6351461;27;19919;-79
2023/09/11 00:26:33;;;;;;;;;;;;;;;;;;6340854;27;19926;-79
2023/09/11 00:29:34;;;;;;;;;;;;;;;;;;6363889;27;19966;-79
2023/09/11 00:32:34;;;;;;;;;;;;;;;;;;6336758;27;20031;-79
2023/09/11 00:35:34;;;;;;;;;;;;;;;;;;6361833;27;20314;-79
2023/09/11 00:38:34;;;;;;;;;;;;;;;;;;6337084;27;19915;-79
2023/09/11 00:41:35;;;;;;;;;;;;;;;;;;6354096;27;19966;-78
2023/09/11 00:44:35;;;;;;;;;;;;;;;;;;6341262;27;19963;-78
2023/09/11 00:47:36;;;;;;;;;;;;;;;;;;6353201;27;20033;-79
2023/09/11 00:50:37;;;;;;;;;;;;;;;;;;6351510;27;19926;-79
2023/09/11 00:53:37;;;;;;;;;;;;;;;;;;6356611;27;19911;-80
2023/09/11 00:56:37;;;;;;;;;;;;;;;;;;6357114;27;20289;-79
2023/09/11 00:59:37;;;;;;;;;;;;;;;;;;6342551;27;19915;-79
2023/09/11 01:02:38;;;;;;;;;;;;;;;;;;6350619;27;19939;-79
2023/09/11 01:05:39;;;;;;;;;;;;;;;;;;6338141;27;19957;-78
2023/09/11 01:08:40;;;;;;;;;;;;;;;;;;6338513;27;19911;-79
2023/09/11 01:11:40;;;;;;;;;;;;;;;;;;6354902;27;19922;-79
2023/09/11 01:14:41;;;;;;;;;;;;;;;;;;6333008;27;19912;-79
2023/09/11 01:17:41;;;;;;;;;;;;;;;;;;6339667;27;19962;-79
2023/09/11 01:20:41;;;;;;;;;;;;;;;;;;6337526;27;20295;-79
2023/09/11 01:23:41;;;;;;;;;;;;;;;;;;6355981;27;20286;-78
2023/09/11 01:26:41;;;;;;;;;;;;;;;;;;6354060;28;19923;-78
2023/09/11 01:29:41;;;;;;;;;;;;;;;;;;6356213;28;20015;-79
2023/09/11 01:32:42;;;;;;;;;;;;;;;;;;6354943;28;20392;-79
2023/09/11 01:35:42;;;;;;;;;;;;;;;;;;6355323;28;20037;-80
2023/09/11 01:38:42;;;;;;;;;;;;;;;;;;6335531;28;19919;-79
2023/09/11 01:41:42;;;;;;;;;;;;;;;;;;6347641;28;19919;-79
2023/09/11 01:44:43;;;;;;;;;;;;;;;;;;6359840;28;19922;-79
2023/09/11 01:47:45;;;;;;;;;;;;;;;;;;6343117;28;20013;-79
2023/09/11 01:50:45;;;;;;;;;;;;;;;;;;6339401;28;20669;-79
2023/09/11 01:53:45;;;;;;;;;;;;;;;;;;6359854;28;19998;-79
2023/09/11 01:56:45;;;;;;;;;;;;;;;;;;6373595;28;19922;-79
2023/09/11 01:59:45;;;;;;;;;;;;;;;;;;6354491;28;19911;-81
2023/09/11 02:02:51;;;;;;;;;;;;;;;;;;6355466;28;19926;-78
2023/09/11 02:05:51;;;;;;;;;;;;;;;;;;6359300;28;19919;-79
2023/09/11 02:08:52;;;;;;;;;;;;;;;;;;6374999;27;19918;-78
2023/09/11 02:11:54;;;;;;;;;;;;;;;;;;6371233;28;20094;-78
2023/09/11 02:14:55;;;;;;;;;;;;;;;;;;6366401;28;19948;-80
2023/09/11 02:17:55;;;;;;;;;;;;;;;;;;6366059;28;19958;-79
2023/09/11 02:20:55;;;;;;;;;;;;;;;;;;6361848;28;19912;-80
2023/09/11 02:23:56;;;;;;;;;;;;;;;;;;6360319;28;19922;-78
2023/09/11 02:26:57;;;;;;;;;;;;;;;;;;6362692;28;20010;-79
2023/09/11 02:29:58;;;;;;;;;;;;;;;;;;6346537;27;20002;-79
2023/09/11 02:32:58;;;;;;;;;;;;;;;;;;6362384;27;19922;-79
2023/09/11 02:35:59;;;;;;;;;;;;;;;;;;6363905;27;19947;-80
2023/09/11 02:38:59;;;;;;;;;;;;;;;;;;6347775;27;19911;-78
2023/09/11 02:41:59;;;;;;;;;;;;;;;;;;6345388;27;19954;-79
2023/09/11 02:45:00;;;;;;;;;;;;;;;;;;6345844;27;19916;-79
2023/09/11 02:48:00;;;;;;;;;;;;;;;;;;6346902;27;19920;-80
2023/09/11 02:51:00;;;;;;;;;;;;;;;;;;6344190;27;19930;-79
2023/09/11 02:54:00;;;;;;;;;;;;;;;;;;6363622;27;19924;-80
2023/09/11 02:57:01;;;;;;;;;;;;;;;;;;6345142;27;19916;-79
2023/09/11 03:00:02;;;;;;;;;;;;;;;;;;6361361;27;19915;-78
2023/09/11 03:03:03;;;;;;;;;;;;;;;;;;6364230;27;19983;-78
2023/09/11 03:06:03;;;;;;;;;;;;;;;;;;6363706;27;19923;-79
2023/09/11 03:09:05;;;;;;;;;;;;;;;;;;6368050;27;19922;-79
2023/09/11 03:12:05;;;;;;;;;;;;;;;;;;6346459;27;19911;-78
2023/09/11 03:15:05;;;;;;;;;;;;;;;;;;6361129;27;20052;-78
2023/09/11 03:18:05;;;;;;;;;;;;;;;;;;6342148;27;20008;-79
2023/09/11 03:21:07;;;;;;;;;;;;;;;;;;6361512;27;19911;-77
2023/09/11 03:24:07;;;;;;;;;;;;;;;;;;6344400;27;19911;-78
2023/09/11 03:27:07;;;;;;;;;;;;;;;;;;6362900;27;19920;-78
2023/09/11 03:30:07;;;;;;;;;;;;;;;;;;6342365;27;19923;-78
2023/09/11 03:33:07;;;;;;;;;;;;;;;;;;6346104;27;19922;-77
2023/09/11 03:36:07;;;;;;;;;;;;;;;;;;6361314;27;19912;-78
2023/09/11 03:39:08;;;;;;;;;;;;;;;;;;6342776;27;19979;-78
2023/09/11 03:42:08;;;;;;;;;;;;;;;;;;6342778;27;19976;-78
2023/09/11 03:45:08;;;;;;;;;;;;;;;;;;6359678;27;20336;-78
2023/09/11 03:48:08;;;;;;;;;;;;;;;;;;6364813;27;20362;-79
2023/09/11 03:51:09;;;;;;;;;;;;;;;;;;6363025;27;19915;-80
2023/09/11 03:54:09;;;;;;;;;;;;;;;;;;6346998;27;19912;-79
2023/09/11 03:57:09;;;;;;;;;;;;;;;;;;6360947;27;19912;-78
2023/09/11 04:00:09;;;;;;;;;;;;;;;;;;6344386;27;19991;-79
2023/09/11 04:03:09;;;;;;;;;;;;;;;;;;6363172;27;20257;-78
2023/09/11 04:06:09;;;;;;;;;;;;;;;;;;6343217;27;19919;-77
2023/09/11 04:09:09;;;;;;;;;;;;;;;;;;6359513;27;20391;-77
2023/09/11 04:12:14;;;;;;;;;;;;;;;;;;6360676;27;19912;-77
2023/09/11 04:15:14;;;;;;;;;;;;;;;;;;6357790;27;19923;-78
2023/09/11 04:18:14;;;;;;;;;;;;;;;;;;6359783;27;19918;-77
2023/09/11 04:21:16;;;;;;;;;;;;;;;;;;6362501;27;19976;-77
2023/09/11 04:24:16;;;;;;;;;;;;;;;;;;6367954;27;20349;-78
2023/09/11 04:27:16;;;;;;;;;;;;;;;;;;6366224;27;19912;-76
2023/09/11 04:30:17;;;;;;;;;;;;;;;;;;6368453;27;19915;-77
2023/09/11 04:33:17;;;;;;;;;;;;;;;;;;6368621;27;19938;-77
2023/09/11 04:36:17;;;;;;;;;;;;;;;;;;6364884;27;20059;-77
2023/09/11 04:39:18;;;;;;;;;;;;;;;;;;6370223;27;20419;-77
2023/09/11 04:42:19;;;;;;;;;;;;;;;;;;6362771;27;19915;-77
2023/09/11 04:45:19;;;;;;;;;;;;;;;;;;6365507;27;19917;-77
2023/09/11 04:48:20;;;;;;;;;;;;;;;;;;6363509;27;20275;-78
2023/09/11 04:51:20;;;;;;;;;;;;;;;;;;6358460;27;19915;-78
2023/09/11 04:54:20;;;;;;;;;;;;;;;;;;6346742;27;19923;-78
2023/09/11 04:57:21;;;;;;;;;;;;;;;;;;6353348;27;19912;-78
2023/09/11 05:00:22;;;;;;;;;;;;;;;;;;6351497;27;19919;-78
2023/09/11 05:03:22;;;;;;;;;;;;;;;;;;6352543;27;20366;-78
2023/09/11 05:06:23;;;;;;;;;;;;;;;;;;6346398;27;19919;-79
2023/09/11 05:09:23;;;;;;;;;;;;;;;;;;6371169;27;20020;-79
2023/09/11 05:12:24;;;;;;;;;;;;;;;;;;6378746;27;19899;-78
2023/09/11 05:15:24;;;;;;;;;;;;;;;;;;6376890;27;19915;-78
2023/09/11 05:18:24;;;;;;;;;;;;;;;;;;6374482;27;19918;-77
2023/09/11 05:21:24;;;;;;;;;;;;;;;;;;6360715;27;19920;-77
2023/09/11 05:24:24;;;;;;;;;;;;;;;;;;6357227;27;19975;-77
2023/09/11 05:27:26;;;;;;;;;;;;;;;;;;6356253;27;20389;-77
2023/09/11 05:30:29;;;;;;;;;;;;;;;;;;6345594;27;19919;-79
2023/09/11 05:33:29;;;;;;;;;;;;;;;;;;6358158;28;19991;-78
2023/09/11 05:36:29;;;;;;;;;;;;;;;;;;6355996;28;19911;-78
2023/09/11 05:39:29;;;;;;;;;;;;;;;;;;6355345;28;20017;-78
2023/09/11 05:42:29;;;;;;;;;;;;;;;;;;6354741;28;20251;-79
2023/09/11 05:45:29;;;;;;;;;;;;;;;;;;6353629;28;19953;-78
2023/09/11 05:48:31;;;;;;;;;;;;;;;;;;6351950;28;19920;-79
2023/09/11 05:51:32;;;;;;;;;;;;;;;;;;6355924;28;20292;-79
2023/09/11 05:54:33;;;;;;;;;;;;;;;;;;6354303;28;19919;-78
2023/09/11 05:57:34;;;;;;;;;;;;;;;;;;6355308;28;19935;-78
2023/09/11 06:00:34;;;;;;;;;;;;;;;;;;6357296;28;19926;-79
2023/09/11 06:03:36;;;;;;;;;;;;;;;;;;6336333;28;19998;-79
2023/09/11 06:06:36;;;;;;;;;;;;;;;;;;6342217;27;19962;-78
2023/09/11 06:09:36;;;;;;;;;;;;;;;;;;6355685;27;19977;-78
2023/09/11 06:12:36;;;;;;;;;;;;;;;;;;6360421;27;19912;-78
2023/09/11 06:15:38;;;;;;;;;;;;;;;;;;6357520;27;19933;-79
2023/09/11 06:18:39;;;;;;;;;;;;;;;;;;6357582;27;20243;-79
2023/09/11 06:21:39;;;;;;;;;;;;;;;;;;6356533;27;20364;-79
2023/09/11 06:24:39;;;;;;;;;;;;;;;;;;6358856;27;19912;-79
2023/09/11 06:27:39;;;;;;;;;;;;;;;;;;6357119;27;19922;-80
2023/09/11 06:30:40;;;;;;;;;;;;;;;;;;6360095;27;19911;-79
2023/09/11 06:33:40;;;;;;;;;;;;;;;;;;6358462;27;20031;-79
2023/09/11 06:36:40;;;;;;;;;;;;;;;;;;6364666;27;20395;-79
2023/09/11 06:39:40;;;;;;;;;;;;;;;;;;6367999;27;19935;-79
2023/09/11 06:42:40;;;;;;;;;;;;;;;;;;6342909;27;19912;-79
2023/09/11 06:45:41;;;;;;;;;;;;;;;;;;6359684;27;19934;-78
2023/09/11 06:48:41;;;;;;;;;;;;;;;;;;6343436;27;19973;-79
2023/09/11 06:51:41;;;;;;;;;;;;;;;;;;6341142;27;20618;-78
2023/09/11 06:54:42;;;;;;;;;;;;;;;;;;6357360;27;19930;-79
2023/09/11 06:57:42;;;;;;;;;;;;;;;;;;6350491;27;19965;-78
2023/09/11 07:00:42;;;;;;;;;;;;;;;;;;6360135;27;19928;-77
2023/09/11 07:03:43;;;;;;;;;;;;;;;;;;6358659;27;19919;-77
2023/09/11 07:06:43;;;;;;;;;;;;;;;;;;6347086;27;20000;-75
2023/09/11 07:09:43;;;;;;;;;;;;;;;;;;6328226;27;20292;-76
2023/09/11 07:12:43;;;;;;;;;;;;;;;;;;6309400;27;20027;-76
2023/09/11 07:15:43;;;;;;;;;;;;;;;;;;6330249;27;19965;-74
2023/09/11 07:18:43;;;;;;;;;;;;;;;;;;6336247;27;19953;-75
2023/09/11 07:21:44;;;;;;;;;;;;;;;;;;6314713;27;20019;-77
2023/09/11 07:24:44;;;;;;;;;;;;;;;;;;6326851;27;19920;-77
2023/09/11 07:27:44;;;;;;;;;;;;;;;;;;6313339;27;19949;-76
2023/09/11 07:30:44;;;;;;;;;;;;;;;;;;6325360;27;19926;-76
2023/09/11 07:33:45;;;;;;;;;;;;;;;;;;6323301;27;20444;-75
2023/09/11 07:36:45;;;;;;;;;;;;;;;;;;6338898;27;19919;-76
2023/09/11 07:39:45;;;;;;;;;;;;;;;;;;6338056;27;19949;-75
2023/09/11 07:42:45;;;;;;;;;;;;;;;;;;6341082;27;19926;-76
2023/09/11 07:45:47;;;;;;;;;;;;;;;;;;6325568;27;19911;-75
2023/09/11 07:48:47;;;;;;;;;;;;;;;;;;6336162;27;19926;-76
2023/09/11 07:51:47;;;;;;;;;;;;;;;;;;6335860;27;20649;-75
2023/09/11 07:54:47;;;;;;;;;;;;;;;;;;6336971;27;20686;-76
2023/09/11 07:57:47;;;;;;;;;;;;;;;;;;6321008;27;19919;-76
2023/09/11 08:00:47;;;;;;;;;;;;;;;;;;6321967;27;20050;-76
2023/09/11 08:03:48;;;;;;;;;;;;;;;;;;6290206;28;19921;-75
2023/09/11 08:06:48;;;;;;;;;;;;;;;;;;6289942;28;20457;-75
2023/09/11 08:09:48;;;;;;;;;;;;;;;;;;6289838;28;19912;-74
2023/09/11 08:12:48;;;;;;;;;;;;;;;;;;6294810;28;19931;-75
2023/09/11 08:15:49;;;;;;;;;;;;;;;;;;6290224;28;19916;-74
2023/09/11 08:18:49;;;;;;;;;;;;;;;;;;6282495;28;19988;-75
2023/09/11 08:21:50;;;;;;;;;;;;;;;;;;6285542;28;19923;-74
2023/09/11 08:24:50;;;;;;;;;;;;;;;;;;6288369;28;20152;-75
2023/09/11 08:27:51;;;;;;;;;;;;;;;;;;5933406;28;9999950;-75
2023/09/11 08:30:51;;;;;;;;;;;;;;;;;;6283376;28;19947;-74
2023/09/11 08:33:51;;;;;;;;;;;;;;;;;;6288236;28;19920;-74
2023/09/11 08:36:52;;;;;;;;;;;;;;;;;;6291284;28;20094;-74
2023/09/11 08:39:52;;;;;;;;;;;;;;;;;;6265827;28;19923;-74
2023/09/11 08:42:52;;;;;;;;;;;;;;;;;;6282267;28;19927;-75
2023/09/11 08:45:52;;;;;;;;;;;;;;;;;;6274534;28;19990;-74
2023/09/11 08:48:53;;;;;;;;;;;;;;;;;;6283826;28;19925;-75
2023/09/11 08:51:53;;;;;;;;;;;;;;;;;;6275988;28;19924;-72
2023/09/11 08:54:53;;;;;;;;;;;;;;;;;;6292195;28;20405;-74
2023/09/11 08:57:53;;;;;;;;;;;;;;;;;;6266853;28;20381;-74
2023/09/11 09:00:53;;;;;;;;;;;;;;;;;;6294727;28;20323;-74
2023/09/11 09:03:53;;;;;;;;;;;;;;;;;;6306228;28;19999;-74
2023/09/11 09:06:53;;;;;;;;;;;;;;;;;;5959727;28;10000365;-75
2023/09/11 09:09:54;;;;;;;;;;;;;;;;;;6294729;28;20647;-76
2023/09/11 09:12:54;;;;;;;;;;;;;;;;;;6308625;28;20031;-75
2023/09/11 09:15:54;;;;;;;;;;;;;;;;;;6287797;28;20012;-78
2023/09/11 09:18:55;;;;;;;;;;;;;;;;;;6307746;28;19920;-78
2023/09/11 09:21:55;;;;;;;;;;;;;;;;;;6310921;28;20685;-76
2023/09/11 09:24:55;;;;;;;;;;;;;;;;;;6292555;28;20400;-78
2023/09/11 09:27:55;;;;;;;;;;;;;;;;;;6311865;28;19958;-76
2023/09/11 09:30:57;;;;;;;;;;;;;;;;;;6301496;28;19926;-74
2023/09/11 09:33:58;;;;;;;;;;;;;;;;;;6339624;28;19920;-75
2023/09/11 09:36:58;;;;;;;;;;;;;;;;;;6341776;28;19987;-75
2023/09/11 09:39:58;;;;;;;;;;;;;;;;;;6341791;27;20996;-75
2023/09/11 09:42:59;;;;;;;;;;;;;;;;;;6346444;27;20291;-75
2023/09/11 09:46:00;;;;;;;;;;;;;;;;;;6343340;27;20074;-75
2023/09/11 09:49:00;;;;;;;;;;;;;;;;;;6341408;27;19919;-75
2023/09/11 09:52:00;;;;;;;;;;;;;;;;;;6345467;27;19935;-76
2023/09/11 09:55:02;;;;;;;;;;;;;;;;;;6346778;27;19916;-76
2023/09/11 09:58:02;;;;;;;;;;;;;;;;;;6342443;27;20328;-74
2023/09/11 10:01:02;;;;;;;;;;;;;;;;;;6335677;27;19927;-75
2023/09/11 10:04:02;;;;;;;;;;;;;;;;;;6320735;27;20010;-74
2023/09/11 10:07:02;;;;;;;;;;;;;;;;;;6337262;27;19919;-75
2023/09/11 10:10:03;;;;;;;;;;;;;;;;;;6320861;27;19938;-74
2023/09/11 10:13:04;;;;;;;;;;;;;;;;;;6344912;27;19920;-85
2023/09/11 10:16:04;;;;;;;;;;;;;;;;;;6338935;27;19930;-76
2023/09/11 10:19:04;;;;;;;;;;;;;;;;;;6325112;27;19920;-73
2023/09/11 10:22:05;;;;;;;;;;;;;;;;;;6319929;27;21471;-74
2023/09/11 10:25:05;;;;;;;;;;;;;;;;;;6336715;27;22900;-75
2023/09/11 10:28:05;;;;;;;;;;;;;;;;;;6331377;27;19926;-75
2023/09/11 10:31:05;;;;;;;;;;;;;;;;;;6319035;27;19930;-76
2023/09/11 10:34:05;;;;;;;;;;;;;;;;;;6335232;27;19951;-74
2023/09/11 10:37:06;;;;;;;;;;;;;;;;;;6336341;27;20025;-75
2023/09/11 10:40:06;;;;;;;;;;;;;;;;;;6334798;27;19935;-75
2023/09/11 10:43:06;;;;;;;;;;;;;;;;;;6334662;27;19926;-75
2023/09/11 10:46:07;;;;;;;;;;;;;;;;;;6336177;27;20054;-75
2023/09/11 10:49:07;;;;;;;;;;;;;;;;;;6319746;27;19919;-75
2023/09/11 10:52:07;;;;;;;;;;;;;;;;;;6335556;27;19920;-75
2023/09/11 10:55:08;;;;;;;;;;;;;;;;;;6318300;27;20014;-77
2023/09/11 10:58:08;;;;;;;;;;;;;;;;;;6319462;27;20041;-76
2023/09/11 11:01:08;;;;;;;;;;;;;;;;;;6334995;27;19927;-73
2023/09/11 11:04:08;;;;;;;;;;;;;;;;;;6319378;27;19966;-74
2023/09/11 11:07:09;;;;;;;;;;;;;;;;;;6317463;27;20694;-76
2023/09/11 11:10:11;;;;;;;;;;;;;;;;;;6315705;27;19927;-76
2023/09/11 11:13:11;;;;;;;;;;;;;;;;;;6338408;27;19924;-74
2023/09/11 11:16:11;;;;;;;;;;;;;;;;;;6333077;27;20394;-75
2023/09/11 11:19:11;;;;;;;;;;;;;;;;;;6316354;27;19988;-71
2023/09/11 11:22:11;;;;;;;;;;;;;;;;;;6335332;27;19920;-71
2023/09/11 11:25:11;;;;;;;;;;;;;;;;;;6332438;27;19927;-71
2023/09/11 11:28:12;;;;;;;;;;;;;;;;;;6336152;27;19919;-70
2023/09/11 11:31:12;;;;;;;;;;;;;;;;;;6333396;27;19919;-69
2023/09/11 11:34:12;;;;;;;;;;;;;;;;;;6331558;27;20558;-69
2023/09/11 11:37:12;;;;;;;;;;;;;;;;;;6335087;27;20262;-70
2023/09/11 11:40:12;;;;;;;;;;;;;;;;;;6331821;27;20058;-68
2023/09/11 11:43:12;;;;;;;;;;;;;;;;;;6335894;27;19972;-65
2023/09/11 11:46:13;;;;;;;;;;;;;;;;;;6333072;27;20433;-65
2023/09/11 11:49:13;;;;;;;;;;;;;;;;;;6333560;27;19919;-66
2023/09/11 11:52:13;;;;;;;;;;;;;;;;;;6331018;27;19920;-66
2023/09/11 11:55:13;;;;;;;;;;;;;;;;;;6334714;27;20123;-66
2023/09/11 11:58:13;;;;;;;;;;;;;;;;;;6331893;27;19929;-69
2023/09/11 12:01:13;;;;;;;;;;;;;;;;;;6332924;27;20010;-72
2023/09/11 12:04:13;;;;;;;;;;;;;;;;;;6333518;27;21453;-68
2023/09/11 12:07:14;;;;;;;;;;;;;;;;;;6334910;27;19919;-69
2023/09/11 12:10:14;;;;;;;;;;;;;;;;;;6334322;27;19925;-69
2023/09/11 12:13:14;;;;;;;;;;;;;;;;;;6334955;27;20017;-69
2023/09/11 12:16:14;;;;;;;;;;;;;;;;;;6329049;27;19958;-69
2023/09/11 12:19:14;;;;;;;;;;;;;;;;;;6333987;27;20366;-69
2023/09/11 12:22:14;;;;;;;;;;;;;;;;;;6335002;27;19915;-70
2023/09/11 12:25:14;;;;;;;;;;;;;;;;;;6336340;27;20703;-69
2023/09/11 12:28:14;;;;;;;;;;;;;;;;;;6333174;27;20014;-72
2023/09/11 12:31:18;;;;;;;;;;;;;;;;;;6329535;27;19923;-68
2023/09/11 12:34:18;;;;;;;;;;;;;;;;;;6333570;27;21227;-70
2023/09/11 12:37:18;;;;;;;;;;;;;;;;;;6335202;27;20274;-70
2023/09/11 12:40:18;;;;;;;;;;;;;;;;;;6316146;27;19923;-70
2023/09/11 12:43:18;;;;;;;;;;;;;;;;;;6330395;27;20128;-70
2023/09/11 12:46:20;;;;;;;;;;;;;;;;;;6315275;27;19919;-70
2023/09/11 12:49:20;;;;;;;;;;;;;;;;;;6333162;27;20375;-71
2023/09/11 12:52:20;;;;;;;;;;;;;;;;;;6333902;27;19924;-68
2023/09/11 12:55:20;;;;;;;;;;;;;;;;;;6315627;27;20389;-69
2023/09/11 12:58:20;;;;;;;;;;;;;;;;;;6332915;27;19919;-68
2023/09/11 13:01:21;;;;;;;;;;;;;;;;;;6330642;27;19928;-70
2023/09/11 13:04:21;;;;;;;;;;;;;;;;;;6334879;27;19924;-69
2023/09/11 13:07:21;;;;;;;;;;;;;;;;;;6334081;27;20539;-69
2023/09/11 13:10:22;;;;;;;;;;;;;;;;;;6335053;27;19955;-67
2023/09/11 13:13:22;;;;;;;;;;;;;;;;;;6331752;27;19959;-71
2023/09/11 13:16:22;;;;;;;;;;;;;;;;;;6330583;27;19919;-69
2023/09/11 13:19:23;;;;;;;;;;;;;;;;;;6337834;27;20046;-68
2023/09/11 13:22:23;;;;;;;;;;;;;;;;;;6334269;27;20456;-68
2023/09/11 13:25:23;;;;;;;;;;;;;;;;;;6334243;27;20487;-68
2023/09/11 13:28:23;;;;;;;;;;;;;;;;;;6335182;27;20671;-67
2023/09/11 13:31:24;;;;;;;;;;;;;;;;;;6329278;27;19964;-68
2023/09/11 13:34:25;;;;;;;;;;;;;;;;;;6313852;28;19920;-68
2023/09/11 13:37:25;;;;;;;;;;;;;;;;;;6332203;28;21680;-68
2023/09/11 13:40:25;;;;;;;;;;;;;;;;;;6330610;28;19923;-69
2023/09/11 13:43:25;;;;;;;;;;;;;;;;;;6329639;28;19923;-70
2023/09/11 13:46:26;;;;;;;;;;;;;;;;;;6333014;28;19926;-68
2023/09/11 13:49:26;;;;;;;;;;;;;;;;;;6333171;28;20218;-68
2023/09/11 13:52:26;;;;;;;;;;;;;;;;;;6331159;28;19973;-68
2023/09/11 13:55:26;;;;;;;;;;;;;;;;;;6331012;28;19915;-68
2023/09/11 13:58:27;;;;;;;;;;;;;;;;;;6330687;28;19935;-68
2023/09/11 14:01:27;;;;;;;;;;;;;;;;;;6330605;28;19939;-69
2023/09/11 14:04:27;;;;;;;;;;;;;;;;;;6332381;28;19924;-68
2023/09/11 14:07:27;;;;;;;;;;;;;;;;;;6328840;28;19926;-69
2023/09/11 14:10:28;;;;;;;;;;;;;;;;;;6331540;28;19973;-69
2023/09/11 14:13:28;;;;;;;;;;;;;;;;;;6334870;28;20407;-77
2023/09/11 14:16:28;;;;;;;;;;;;;;;;;;6313306;28;19915;-76
2023/09/11 14:19:28;;;;;;;;;;;;;;;;;;6332318;28;20540;-76
2023/09/11 14:22:28;;;;;;;;;;;;;;;;;;6333462;28;21647;-75
2023/09/11 14:25:28;;;;;;;;;;;;;;;;;;6314044;27;19935;-79
2023/09/11 14:28:29;;;;;;;;;;;;;;;;;;6339644;27;19922;-74
2023/09/11 14:31:29;;;;;;;;;;;;;;;;;;6339072;27;19971;-73
2023/09/11 14:34:29;;;;;;;;;;;;;;;;;;6344268;27;19926;-74
2023/09/11 14:37:29;;;;;;;;;;;;;;;;;;6344300;27;19923;-75
2023/09/11 14:40:30;;;;;;;;;;;;;;;;;;6339298;27;19922;-75
2023/09/11 14:43:30;;;;;;;;;;;;;;;;;;6338319;27;19915;-75
2023/09/11 14:46:30;;;;;;;;;;;;;;;;;;6325854;27;19945;-75
2023/09/11 14:49:30;;;;;;;;;;;;;;;;;;6337283;27;19919;-75
2023/09/11 14:52:31;;;;;;;;;;;;;;;;;;6338137;27;20079;-75
2023/09/11 14:55:31;;;;;;;;;;;;;;;;;;6336890;27;20477;-75
2023/09/11 14:58:31;;;;;;;;;;;;;;;;;;6337531;27;19927;-75
2023/09/11 15:01:32;;;;;;;;;;;;;;;;;;6335606;27;20397;-76
2023/09/11 15:04:32;;;;;;;;;;;;;;;;;;6337811;27;19919;-76
2023/09/11 15:07:32;;;;;;;;;;;;;;;;;;6344972;27;19942;-76
2023/09/11 15:10:32;;;;;;;;;;;;;;;;;;6338806;27;20110;-78
2023/09/11 15:13:32;;;;;;;;;;;;;;;;;;6336937;27;20574;-77
2023/09/11 15:16:33;;;;;;;;;;;;;;;;;;6333863;27;20637;-79
2023/09/11 15:19:33;;;;;;;;;;;;;;;;;;6337375;27;19975;-79
2023/09/11 15:22:34;;;;;;;;;;;;;;;;;;6339243;27;19920;-82
2023/09/11 15:25:34;;;;;;;;;;;;;;;;;;6339524;27;19957;-75
2023/09/11 15:28:34;;;;;;;;;;;;;;;;;;6337934;27;19920;-76
2023/09/11 15:31:34;;;;;;;;;;;;;;;;;;6334715;27;20010;-76
2023/09/11 15:34:34;;;;;;;;;;;;;;;;;;6335826;27;23266;-76
2023/09/11 15:37:35;;;;;;;;;;;;;;;;;;6331905;27;19919;-76
2023/09/11 15:40:36;;;;;;;;;;;;;;;;;;6315208;27;20319;-75
2023/09/11 15:43:36;;;;;;;;;;;;;;;;;;6334084;27;19931;-77
2023/09/11 15:46:36;;;;;;;;;;;;;;;;;;6331977;27;20582;-77
2023/09/11 15:49:36;;;;;;;;;;;;;;;;;;6331051;27;21292;-74
2023/09/11 15:52:38;;;;;;;;;;;;;;;;;;6313276;27;19919;-76
2023/09/11 15:55:38;;;;;;;;;;;;;;;;;;6337256;27;20030;-76
2023/09/11 15:58:38;;;;;;;;;;;;;;;;;;6336598;27;20019;-81
2023/09/11 16:01:39;;;;;;;;;;;;;;;;;;6321148;27;20415;-78
2023/09/11 16:04:39;;;;;;;;;;;;;;;;;;6316154;27;19923;-82
2023/09/11 16:07:39;;;;;;;;;;;;;;;;;;6335215;27;19920;-79
2023/09/11 16:10:39;;;;;;;;;;;;;;;;;;6336485;27;20156;-81
2023/09/11 16:13:39;;;;;;;;;;;;;;;;;;6334564;27;19972;-77
2023/09/11 16:16:40;;;;;;;;;;;;;;;;;;6331163;27;19916;-79
2023/09/11 16:19:40;;;;;;;;;;;;;;;;;;6348314;27;20392;-79
2023/09/11 16:22:40;;;;;;;;;;;;;;;;;;6338436;27;19926;-77
2023/09/11 16:25:41;;;;;;;;;;;;;;;;;;6356016;27;19926;-78
2023/09/11 16:28:41;;;;;;;;;;;;;;;;;;6330059;27;19915;-78
2023/09/11 16:31:41;;;;;;;;;;;;;;;;;;6349607;27;19924;-77
2023/09/11 16:34:41;;;;;;;;;;;;;;;;;;6345286;27;19972;-78
2023/09/11 16:37:43;;;;;;;;;;;;;;;;;;6355922;27;20321;-77
2023/09/11 16:40:43;;;;;;;;;;;;;;;;;;6352158;27;19919;-77
2023/09/11 16:43:44;;;;;;;;;;;;;;;;;;6352674;27;19930;-78
2023/09/11 16:46:44;;;;;;;;;;;;;;;;;;6344673;27;19920;-78
2023/09/11 16:49:44;;;;;;;;;;;;;;;;;;6322434;28;19927;-79
2023/09/11 16:52:46;;;;;;;;;;;;;;;;;;6314006;28;20685;-78
2023/09/11 16:55:46;;;;;;;;;;;;;;;;;;6322134;28;19973;-79
2023/09/11 16:58:46;;;;;;;;;;;;;;;;;;6326223;28;19912;-79
2023/09/11 17:01:46;;;;;;;;;;;;;;;;;;6323329;28;19930;-77
2023/09/11 17:04:46;;;;;;;;;;;;;;;;;;6287123;28;19912;-79
2023/09/11 17:07:46;;;;;;;;;;;;;;;;;;6298909;28;19923;-79
2023/09/11 17:10:47;;;;;;;;;;;;;;;;;;6286701;28;19965;-79
2023/09/11 17:13:47;;;;;;;;;;;;;;;;;;6305226;28;20424;-79
2023/09/11 17:16:47;;;;;;;;;;;;;;;;;;6299981;28;20527;-78
2023/09/11 17:19:48;;;;;;;;;;;;;;;;;;6287186;28;20472;-80
2023/09/11 17:22:48;;;;;;;;;;;;;;;;;;6302263;28;20003;-78
2023/09/11 17:25:48;;;;;;;;;;;;;;;;;;6298353;28;19920;-79
2023/09/11 17:28:48;;;;;;;;;;;;;;;;;;6301189;28;19913;-79
2023/09/11 17:31:48;;;;;;;;;;;;;;;;;;6298568;28;19997;-79
2023/09/11 17:34:50;;;;;;;;;;;;;;;;;;6283297;28;19942;-79
2023/09/11 17:37:50;;;;;;;;;;;;;;;;;;6303366;28;19918;-80
2023/09/11 17:40:50;;;;;;;;;;;;;;;;;;6287859;28;19908;-79
2023/09/11 17:43:50;;;;;;;;;;;;;;;;;;6309529;28;19983;-80
2023/09/11 17:46:50;;;;;;;;;;;;;;;;;;6295797;28;19924;-80
2023/09/11 17:49:52;;;;;;;;;;;;;;;;;;6303995;28;19924;-78
2023/09/11 17:52:52;;;;;;;;;;;;;;;;;;6303901;28;19916;-79
2023/09/11 17:55:53;;;;;;;;;;;;;;;;;;6302138;28;20446;-80
2023/09/11 17:58:53;;;;;;;;;;;;;;;;;;6285110;28;19927;-77
2023/09/11 18:01:53;;;;;;;;;;;;;;;;;;6331173;27;19924;-74
2023/09/11 18:04:53;;;;;;;;;;;;;;;;;;6358433;27;19975;-75
2023/09/11 18:07:53;;;;;;;;;;;;;;;;;;6356108;27;20025;-75
2023/09/11 18:10:54;;;;;;;;;;;;;;;;;;6357422;27;19920;-75
2023/09/11 18:13:54;;;;;;;;;;;;;;;;;;6353474;27;19926;-75
2023/09/11 18:16:54;;;;;;;;;;;;;;;;;;6351609;27;21324;-76
2023/09/11 18:19:54;;;;;;;;;;;;;;;;;;6357620;27;20345;-76
2023/09/11 18:22:55;;;;;;;;;;;;;;;;;;6359495;27;19912;-76
2023/09/11 18:25:55;;;;;;;;;;;;;;;;;;6359200;27;19924;-74
2023/09/11 18:28:55;;;;;;;;;;;;;;;;;;6357299;27;20022;-76
2023/09/11 18:31:55;;;;;;;;;;;;;;;;;;6342916;27;19920;-75
2023/09/11 18:34:55;;;;;;;;;;;;;;;;;;6366307;27;19919;-76
2023/09/11 18:37:55;;;;;;;;;;;;;;;;;;6337921;27;19955;-75
2023/09/11 18:40:55;;;;;;;;;;;;;;;;;;6340234;27;20022;-75
2023/09/11 18:43:55;;;;;;;;;;;;;;;;;;5997699;27;9999945;-75
2023/09/11 18:46:56;;;;;;;;;;;;;;;;;;6352024;27;19927;-77
2023/09/11 18:49:56;;;;;;;;;;;;;;;;;;6365178;27;19919;-74
2023/09/11 18:52:56;;;;;;;;;;;;;;;;;;6381411;27;19908;-75
2023/09/11 18:55:57;;;;;;;;;;;;;;;;;;6368472;27;20451;-74
2023/09/11 18:58:57;;;;;;;;;;;;;;;;;;6342088;28;19949;-74
2023/09/11 19:02:01;;;;;;;;;;;;;;;;;;6359016;27;19962;-73
2023/09/11 19:05:01;;;;;;;;;;;;;;;;;;6363205;27;20346;-75
2023/09/11 19:08:01;;;;;;;;;;;;;;;;;;6353260;27;19920;-76
2023/09/11 19:11:02;;;;;;;;;;;;;;;;;;6366469;27;20418;-77
2023/09/11 19:14:02;;;;;;;;;;;;;;;;;;6350432;27;19930;-74
2023/09/11 19:17:04;;;;;;;;;;;;;;;;;;6357650;27;19918;-76
2023/09/11 19:20:04;;;;;;;;;;;;;;;;;;6360971;27;19920;-75
2023/09/11 19:23:04;;;;;;;;;;;;;;;;;;6357182;27;20433;-75
2023/09/11 19:26:05;;;;;;;;;;;;;;;;;;6359907;27;19923;-75
2023/09/11 19:29:05;;;;;;;;;;;;;;;;;;6360502;27;20334;-74
2023/09/11 19:32:06;;;;;;;;;;;;;;;;;;6358022;27;20358;-75
2023/09/11 19:35:07;;;;;;;;;;;;;;;;;;6347527;27;19935;-74
2023/09/11 19:38:08;;;;;;;;;;;;;;;;;;6347048;27;20365;-75
2023/09/11 19:41:08;;;;;;;;;;;;;;;;;;6359434;27;19991;-74
2023/09/11 19:44:08;;;;;;;;;;;;;;;;;;6344181;27;20024;-75
2023/09/11 19:47:08;;;;;;;;;;;;;;;;;;6344521;27;19922;-75
2023/09/11 19:50:09;;;;;;;;;;;;;;;;;;6348386;27;20769;-76
2023/09/11 19:53:09;;;;;;;;;;;;;;;;;;6370434;27;20252;-74
2023/09/11 19:56:09;;;;;;;;;;;;;;;;;;6370453;27;19959;-75
2023/09/11 19:59:09;;;;;;;;;;;;;;;;;;6354684;27;19933;-75
2023/09/11 20:02:11;;;;;;;;;;;;;;;;;;6345133;27;19924;-73
2023/09/11 20:05:11;;;;;;;;;;;;;;;;;;6368479;27;19923;-74
2023/09/11 20:08:11;;;;;;;;;;;;;;;;;;6352999;27;19911;-75
2023/09/11 20:11:12;;;;;;;;;;;;;;;;;;6340785;27;20237;-75
2023/09/11 20:14:12;;;;;;;;;;;;;;;;;;6359279;27;19912;-74
2023/09/11 20:17:12;;;;;;;;;;;;;;;;;;6335292;27;19916;-74
2023/09/11 20:20:12;;;;;;;;;;;;;;;;;;6339413;27;19993;-74
2023/09/11 20:23:14;;;;;;;;;;;;;;;;;;6355904;27;20350;-74
2023/09/11 20:26:14;;;;;;;;;;;;;;;;;;6353682;27;19928;-74
2023/09/11 20:29:15;;;;;;;;;;;;;;;;;;6353768;27;19982;-74
2023/09/11 20:32:15;;;;;;;;;;;;;;;;;;6353452;27;19964;-74